Time;durP1;ratioP1;P1;durP2;ratioP2;P2;SDS_P1;SDS_P2;PMS_P1;PMS_P2;Temp;Humidity;BMP_temperature;BMP_pressure;BME280_temperature;BME280_humidity;BME280_pressure;Samples;Min_cycle;Max_cycle;Signal;HPM_P1;HPM_P2
2023/12/04 00:01:19;;;;;;;62.67;26.70;;;;;;;-3.22;100.00;100484.81;4192641;28;22575;-51
2023/12/04 00:03:46;;;;;;;65.17;23.93;;;;;;;-3.03;100.00;100473.50;4188603;28;20238;-64
2023/12/04 00:06:13;;;;;;;62.47;25.57;;;;;;;-3.15;100.00;100469.53;4190035;28;20298;-65
2023/12/04 00:08:40;;;;;;;64.13;25.80;;;;;;;-3.10;100.00;100487.91;4185731;28;21557;-65
2023/12/04 00:11:07;;;;;;;62.10;26.53;;;;;;;-3.14;100.00;100479.22;4181332;28;25781;-63
2023/12/04 00:13:35;;;;;;;62.37;26.33;;;;;;;-3.08;100.00;100480.78;4175071;28;22331;-63
2023/12/04 00:16:02;;;;;;;65.00;25.00;;;;;;;-3.07;100.00;100480.69;4184416;28;21327;-65
2023/12/04 00:18:29;;;;;;;68.93;28.10;;;;;;;-3.17;100.00;100495.22;4192208;28;21150;-63
2023/12/04 00:20:56;;;;;;;60.53;25.93;;;;;;;-3.16;100.00;100486.34;4183972;28;20360;-65
2023/12/04 00:23:23;;;;;;;70.20;26.73;;;;;;;-3.17;100.00;100489.06;4183185;28;20248;-65
2023/12/04 00:25:49;;;;;;;79.83;29.53;;;;;;;-3.15;100.00;100503.13;4183094;28;20653;-64
2023/12/04 00:28:16;;;;;;;67.33;27.73;;;;;;;-3.15;100.00;100480.13;4180678;28;20229;-62
2023/12/04 00:30:43;;;;;;;74.23;28.50;;;;;;;-3.07;100.00;100499.25;4182176;28;20241;-64
2023/12/04 00:33:09;;;;;;;74.37;28.13;;;;;;;-3.11;100.00;100497.66;4180868;28;21542;-63
2023/12/04 00:35:36;;;;;;;66.80;26.63;;;;;;;-3.03;100.00;100495.56;4186768;28;20230;-65
2023/12/04 00:38:03;;;;;;;68.80;27.13;;;;;;;-3.01;100.00;100500.78;4185425;28;20237;-65
2023/12/04 00:40:29;;;;;;;73.23;30.57;;;;;;;-2.96;100.00;100497.97;4186957;28;20796;-67
2023/12/04 00:42:56;;;;;;;74.70;29.83;;;;;;;-2.97;100.00;100499.75;4187081;28;20249;-65
2023/12/04 00:45:23;;;;;;;69.60;28.37;;;;;;;-3.02;100.00;100507.00;4188193;28;20233;-64
2023/12/04 00:47:50;;;;;;;71.00;28.13;;;;;;;-2.95;100.00;100508.50;4183463;28;21023;-66
2023/12/04 00:59:41;;;;;;;68.13;28.00;;;;;;;-2.94;100.00;100509.34;4187819;28;20314;-64
2023/12/04 01:02:07;;;;;;;74.70;29.23;;;;;;;-2.86;100.00;100517.88;4181723;28;20305;-62
2023/12/04 01:04:35;;;;;;;67.93;28.33;;;;;;;-2.89;100.00;100521.50;4180877;28;20308;-63
2023/12/04 01:07:02;;;;;;;68.43;27.40;;;;;;;-2.79;100.00;100515.84;4184178;28;22999;-64
2023/12/04 01:09:29;;;;;;;70.33;27.90;;;;;;;-2.79;100.00;100529.09;4186583;28;20236;-65
2023/12/04 01:11:56;;;;;;;68.47;28.57;;;;;;;-2.82;100.00;100523.91;4187034;28;20241;-62
2023/12/04 01:14:22;;;;;;;68.60;27.87;;;;;;;-2.88;100.00;100510.00;4187857;28;20268;-64
2023/12/04 01:16:49;;;;;;;74.73;28.07;;;;;;;-2.80;100.00;100528.25;4186156;28;20240;-64
2023/12/04 01:19:16;;;;;;;60.93;26.33;;;;;;;-2.80;100.00;100524.72;4182246;28;21592;-62
2023/12/04 01:21:43;;;;;;;73.00;27.63;;;;;;;-2.79;100.00;100523.81;4185776;28;20241;-64
2023/12/04 01:24:10;;;;;;;62.43;25.87;;;;;;;-2.83;100.00;100517.75;4178890;28;20238;-63
2023/12/04 01:26:37;;;;;;;65.53;25.93;;;;;;;-2.80;100.00;100517.66;4181732;28;22264;-62
2023/12/04 01:29:03;;;;;;;61.20;24.63;;;;;;;-2.76;100.00;100524.53;4184574;28;20225;-62
2023/12/04 01:31:30;;;;;;;63.17;25.60;;;;;;;-2.85;100.00;100527.53;4182320;28;20461;-63
2023/12/04 01:33:57;;;;;;;58.33;24.97;;;;;;;-2.84;100.00;100521.31;4182700;28;20555;-62
2023/12/04 01:36:24;;;;;;;65.13;24.67;;;;;;;-2.83;100.00;100533.66;4182216;28;20305;-65
2023/12/04 01:38:50;;;;;;;55.70;21.37;;;;;;;-2.85;100.00;100534.66;4182817;28;20233;-66
2023/12/04 01:41:17;;;;;;;50.17;22.43;;;;;;;-2.89;100.00;100533.91;4185283;28;20252;-67
2023/12/04 01:43:44;;;;;;;49.77;21.53;;;;;;;-2.81;100.00;100533.59;4178735;28;26005;-62
2023/12/04 01:46:11;;;;;;;50.20;22.37;;;;;;;-2.88;100.00;100525.88;4177251;28;20238;-66
2023/12/04 01:48:38;;;;;;;48.00;21.70;;;;;;;-2.85;100.00;100532.84;4187843;28;20479;-63
2023/12/04 01:51:07;;;;;;;46.07;19.93;;;;;;;-2.88;100.00;100539.13;4184514;28;20268;-63
2023/12/04 01:53:38;;;;;;;47.03;20.03;;;;;;;-2.87;100.00;100559.41;4177839;28;20240;-67
2023/12/04 01:56:06;;;;;;;42.00;19.67;;;;;;;-2.93;100.00;100564.06;4178027;28;20233;-64
2023/12/04 01:58:33;;;;;;;42.63;18.93;;;;;;;-3.00;100.00;100568.75;4186607;28;20237;-65
2023/12/04 02:01:00;;;;;;;41.50;17.53;;;;;;;-3.03;100.00;100575.03;4187170;28;25314;-64
2023/12/04 02:03:28;;;;;;;37.63;15.33;;;;;;;-3.03;100.00;100582.97;4176716;28;20234;-64
2023/12/04 02:05:59;;;;;;;42.47;16.53;;;;;;;-3.09;100.00;100575.22;4183698;28;22160;-65
2023/12/04 02:08:26;;;;;;;35.40;16.30;;;;;;;-3.10;100.00;100592.06;4191350;28;20233;-68
2023/12/04 02:10:53;;;;;;;35.73;15.23;;;;;;;-3.21;100.00;100591.56;4188192;28;21637;-65
2023/12/04 02:13:20;;;;;;;34.07;15.83;;;;;;;-3.30;100.00;100576.00;4186841;28;20234;-65
2023/12/04 02:15:50;;;;;;;42.10;17.20;;;;;;;-3.27;100.00;100574.13;4191728;28;20282;-64
2023/12/04 02:18:18;;;;;;;39.60;17.20;;;;;;;-3.37;100.00;100578.88;4182545;28;20291;-63
2023/12/04 02:20:45;;;;;;;39.17;16.93;;;;;;;-3.37;100.00;100578.03;4186929;28;20414;-63
2023/12/04 02:23:11;;;;;;;36.47;15.73;;;;;;;-3.33;100.00;100578.78;4186606;28;20351;-64
2023/12/04 02:25:38;;;;;;;39.40;17.17;;;;;;;-3.40;100.00;100568.41;4183291;28;21782;-64
2023/12/04 02:28:08;;;;;;;39.93;17.60;;;;;;;-3.50;100.00;100569.66;4186256;28;20238;-64
2023/12/04 02:30:38;;;;;;;40.70;16.83;;;;;;;-3.45;100.00;100569.50;4199838;28;20643;-61
2023/12/04 02:33:06;;;;;;;34.67;15.27;;;;;;;-3.51;100.00;100575.88;4175401;28;20295;-64
2023/12/04 02:35:36;;;;;;;37.27;15.60;;;;;;;-3.51;100.00;100581.16;4191622;28;20230;-63
2023/12/04 02:38:05;;;;;;;38.10;15.70;;;;;;;-3.59;100.00;100578.81;4187330;28;20247;-65
2023/12/04 02:40:32;;;;;;;38.13;15.27;;;;;;;-3.62;100.00;100578.00;4187759;28;22900;-63
2023/12/04 02:42:59;;;;;;;34.70;15.00;;;;;;;-3.64;100.00;100574.56;4195021;28;20396;-62
2023/12/04 02:45:26;;;;;;;34.77;14.43;;;;;;;-3.55;100.00;100585.69;4185094;28;20516;-65
2023/12/04 02:47:52;;;;;;;31.97;14.40;;;;;;;-3.57;100.00;100582.22;4183312;28;20292;-65
2023/12/04 02:50:19;;;;;;;32.87;13.50;;;;;;;-3.59;100.00;100578.81;4176175;28;21698;-63
2023/12/04 02:52:46;;;;;;;31.07;13.17;;;;;;;-3.55;100.00;100585.69;4183117;28;20237;-63
2023/12/04 02:55:12;;;;;;;33.80;13.97;;;;;;;-3.58;100.00;100583.16;4189651;28;20230;-63
2023/12/04 02:57:39;;;;;;;30.47;13.27;;;;;;;-3.59;100.00;100584.09;4188828;28;22204;-65
2023/12/04 03:00:07;;;;;;;30.77;14.07;;;;;;;-3.58;100.00;100598.19;4176853;28;20233;-65
2023/12/04 03:02:34;;;;;;;33.50;14.40;;;;;;;-3.57;100.00;100587.53;4186013;28;20521;-63
2023/12/04 03:05:01;;;;;;;33.33;14.60;;;;;;;-3.57;100.00;100598.09;4169389;28;20273;-64
2023/12/04 03:07:27;;;;;;;35.43;14.33;;;;;;;-3.46;100.00;100586.31;4187035;28;20233;-62
2023/12/04 03:09:54;;;;;;;36.27;14.93;;;;;;;-3.59;100.00;100594.69;4186161;28;21417;-64
2023/12/04 03:12:21;;;;;;;34.87;15.00;;;;;;;-3.51;100.00;100597.91;4168226;28;21753;-64
2023/12/04 03:14:47;;;;;;;32.10;14.83;;;;;;;-3.58;100.00;100596.38;4179929;28;20320;-62
2023/12/04 03:17:14;;;;;;;34.30;14.63;;;;;;;-3.55;100.00;100593.63;4183813;28;20234;-62
2023/12/04 03:19:41;;;;;;;38.03;16.70;;;;;;;-3.57;100.00;100600.75;4174897;28;21013;-65
2023/12/04 03:22:07;;;;;;;35.77;15.27;;;;;;;-3.58;100.00;100606.13;4181265;28;25531;-64
2023/12/04 03:24:34;;;;;;;39.13;15.67;;;;;;;-3.58;100.00;100595.53;4177959;28;22365;-63
2023/12/04 03:27:02;;;;;;;33.97;15.10;;;;;;;-3.60;100.00;100598.25;4177566;28;20439;-65
2023/12/04 03:29:28;;;;;;;40.53;15.67;;;;;;;-3.59;100.00;100607.91;4185599;28;20592;-64
2023/12/04 03:31:56;;;;;;;40.23;16.23;;;;;;;-3.62;100.00;100609.75;4174382;28;21256;-63
2023/12/04 03:34:23;;;;;;;32.27;14.37;;;;;;;-3.70;100.00;100604.75;4192972;28;21772;-65
2023/12/04 03:36:50;;;;;;;37.17;15.60;;;;;;;-3.69;100.00;100609.13;4185775;28;20316;-63
2023/12/04 03:39:16;;;;;;;38.03;16.80;;;;;;;-3.64;100.00;100611.63;4178617;28;21631;-62
2023/12/04 03:41:43;;;;;;;34.33;14.97;;;;;;;-3.60;100.00;100615.88;4183658;28;20253;-62
2023/12/04 03:44:10;;;;;;;36.70;16.17;;;;;;;-3.75;100.00;100614.63;4185313;28;21634;-63
2023/12/04 03:46:36;;;;;;;37.43;16.47;;;;;;;-3.78;100.00;100617.38;4189055;28;20385;-63
2023/12/04 03:49:05;;;;;;;37.67;16.27;;;;;;;-3.75;100.00;100620.78;4183103;28;20352;-66
2023/12/04 03:51:31;;;;;;;36.13;15.70;;;;;;;-3.72;100.00;100618.03;4178298;28;20237;-65
2023/12/04 03:53:58;;;;;;;40.67;16.97;;;;;;;-3.78;100.00;100617.38;4190598;28;20857;-63
2023/12/04 03:56:25;;;;;;;39.53;16.87;;;;;;;-3.75;100.00;100619.94;4187349;28;20644;-63
2023/12/04 03:58:51;;;;;;;45.27;17.23;;;;;;;-3.79;100.00;100626.22;4187406;28;25210;-63
2023/12/04 04:01:18;;;;;;;42.10;17.33;;;;;;;-3.82;100.00;100619.25;4178158;28;26336;-64
2023/12/04 04:03:45;;;;;;;40.30;16.30;;;;;;;-3.64;100.00;100630.13;4175891;28;22203;-65
2023/12/04 04:06:12;;;;;;;46.30;16.67;;;;;;;-3.66;100.00;100623.13;4191293;28;22355;-65
2023/12/04 04:08:39;;;;;;;42.80;16.23;;;;;;;-3.69;100.00;100630.28;4189890;28;20243;-65
2023/12/04 04:11:06;;;;;;;42.37;17.30;;;;;;;-3.81;100.00;100628.91;4193261;28;20292;-65
2023/12/04 04:13:32;;;;;;;43.13;16.93;;;;;;;-3.87;100.00;100624.69;4186250;28;20308;-62
2023/12/04 04:15:59;;;;;;;39.13;17.70;;;;;;;-3.84;100.00;100624.59;4187658;28;20235;-65
2023/12/04 04:18:26;;;;;;;43.90;18.17;;;;;;;-3.70;100.00;100625.91;4191842;28;20606;-63
2023/12/04 04:20:53;;;;;;;42.93;18.47;;;;;;;-3.84;100.00;100626.38;4187227;28;22349;-65
2023/12/04 04:23:20;;;;;;;47.13;18.70;;;;;;;-3.90;100.00;100627.47;4186640;28;20592;-66
2023/12/04 04:25:46;;;;;;;43.33;18.93;;;;;;;-3.91;100.00;100628.38;4195989;28;20237;-67
2023/12/04 04:28:13;;;;;;;47.43;18.63;;;;;;;-3.83;100.00;100628.97;4199213;28;21595;-65
2023/12/04 04:30:40;;;;;;;42.60;18.30;;;;;;;-3.89;100.00;100629.16;4180905;28;20237;-63
2023/12/04 04:33:07;;;;;;;43.70;17.00;;;;;;;-3.83;100.00;100617.53;4183530;28;20435;-64
2023/12/04 04:35:34;;;;;;;43.77;18.07;;;;;;;-3.88;100.00;100622.09;4187214;28;21093;-64
2023/12/04 04:38:01;;;;;;;42.33;18.53;;;;;;;-3.98;100.00;100626.84;4190360;28;20609;-63
2023/12/04 04:40:27;;;;;;;47.93;18.33;;;;;;;-3.98;100.00;100632.13;4194093;28;20835;-63
2023/12/04 04:42:54;;;;;;;42.60;18.33;;;;;;;-3.95;100.00;100632.00;4190095;28;20786;-63
2023/12/04 04:45:21;;;;;;;45.27;18.17;;;;;;;-4.01;100.00;100633.09;4192168;28;22331;-63
2023/12/04 04:47:47;;;;;;;44.20;18.10;;;;;;;-3.99;100.00;100635.69;4188220;28;20237;-63
2023/12/04 04:50:14;;;;;;;42.57;18.27;;;;;;;-3.96;100.00;100635.56;4189788;28;20237;-66
2023/12/04 04:52:41;;;;;;;48.10;18.07;;;;;;;-4.03;100.00;100626.97;4185215;28;20322;-64
2023/12/04 04:55:08;;;;;;;43.10;18.50;;;;;;;-4.07;100.00;100637.69;4189616;28;20229;-65
2023/12/04 04:57:35;;;;;;;45.93;18.83;;;;;;;-4.12;100.00;100635.22;4180179;28;20236;-62
2023/12/04 05:00:02;;;;;;;45.23;19.97;;;;;;;-4.03;100.00;100634.91;4183231;28;20238;-62
2023/12/04 05:02:28;;;;;;;43.70;19.23;;;;;;;-4.09;100.00;100632.47;4187688;28;21700;-64
2023/12/04 05:04:55;;;;;;;43.17;18.73;;;;;;;-4.00;100.00;100634.81;4182848;28;20238;-65
2023/12/04 05:07:22;;;;;;;44.93;19.87;;;;;;;-4.05;100.00;100641.19;4173948;28;23597;-66
2023/12/04 05:09:49;;;;;;;45.57;18.87;;;;;;;-4.11;100.00;100636.94;4173572;28;20233;-63
2023/12/04 05:12:15;;;;;;;51.80;19.70;;;;;;;-3.95;100.00;100644.38;4189089;28;20233;-65
2023/12/04 05:14:42;;;;;;;45.77;19.30;;;;;;;-4.04;100.00;100642.91;4190838;28;20237;-65
2023/12/04 05:17:09;;;;;;;45.57;19.43;;;;;;;-4.05;100.00;100655.25;4184261;28;22181;-61
2023/12/04 05:19:36;;;;;;;44.83;17.93;;;;;;;-3.97;100.00;100652.38;4178366;28;20365;-66
2023/12/04 05:22:02;;;;;;;50.13;20.03;;;;;;;-4.06;100.00;100657.94;4189223;28;21146;-62
2023/12/04 05:24:29;;;;;;;54.30;21.13;;;;;;;-4.02;100.00;100657.81;4188769;28;20312;-64
2023/12/04 05:26:56;;;;;;;53.47;20.27;;;;;;;-3.99;100.00;100662.97;4183369;28;20336;-65
2023/12/04 05:29:22;;;;;;;50.33;20.10;;;;;;;-3.98;100.00;100654.13;4191471;28;23012;-63
2023/12/04 05:31:49;;;;;;;48.47;19.90;;;;;;;-4.02;100.00;100657.81;4175203;28;20229;-63
2023/12/04 05:34:16;;;;;;;49.10;20.23;;;;;;;-4.12;100.00;100644.94;4191243;28;22135;-67
2023/12/04 05:36:42;;;;;;;47.87;20.43;;;;;;;-4.02;100.00;100660.44;4187341;28;20257;-66
2023/12/04 05:39:09;;;;;;;47.33;20.23;;;;;;;-4.07;100.00;100650.94;4189462;28;20268;-64
2023/12/04 05:41:35;;;;;;;53.10;20.50;;;;;;;-4.05;100.00;100652.59;4187840;28;20282;-64
2023/12/04 05:44:02;;;;;;;50.10;20.30;;;;;;;-4.03;100.00;100655.19;4185224;28;22251;-63
2023/12/04 05:46:29;;;;;;;49.10;20.17;;;;;;;-4.04;100.00;100649.06;4190936;28;20305;-65
2023/12/04 05:48:56;;;;;;;49.77;20.63;;;;;;;-4.01;100.00;100661.31;4203450;28;20236;-63
2023/12/04 05:51:22;;;;;;;47.23;19.43;;;;;;;-4.08;100.00;100665.94;4186332;28;20238;-66
2023/12/04 05:53:49;;;;;;;45.93;19.43;;;;;;;-4.01;100.00;100661.31;4174843;28;20324;-66
2023/12/04 05:56:16;;;;;;;48.47;19.00;;;;;;;-4.10;100.00;100661.59;4184930;28;20236;-63
2023/12/04 05:58:42;;;;;;;45.20;18.60;;;;;;;-4.14;100.00;100666.09;4188150;28;20327;-66
2023/12/04 06:01:09;;;;;;;47.67;20.20;;;;;;;-4.05;100.00;100675.56;4193481;28;21920;-63
2023/12/04 06:03:35;;;;;;;51.33;20.00;;;;;;;-4.08;100.00;100678.28;4190484;28;20260;-64
2023/12/04 06:06:02;;;;;;;48.60;18.90;;;;;;;-4.04;100.00;100667.56;4185191;28;20238;-64
2023/12/04 06:08:31;;;;;;;49.43;20.20;;;;;;;-4.02;100.00;100670.16;4193769;28;20244;-67
2023/12/04 06:10:58;;;;;;;53.07;21.67;;;;;;;-4.08;100.00;100675.63;4201703;28;20304;-68
2023/12/04 06:13:24;;;;;;;45.97;19.00;;;;;;;-4.04;100.00;100678.13;4188540;28;21126;-64
2023/12/04 06:15:51;;;;;;;47.57;19.83;;;;;;;-4.07;100.00;100683.50;4186710;28;20233;-65
2023/12/04 06:18:18;;;;;;;53.20;19.23;;;;;;;-4.04;100.00;100674.63;4195317;28;20559;-66
2023/12/04 06:20:44;;;;;;;51.67;19.67;;;;;;;-4.01;100.00;100682.47;4190065;28;20296;-66
2023/12/04 06:23:12;;;;;;;62.00;22.97;;;;;;;-4.05;100.00;100689.63;4196937;28;20233;-68
2023/12/04 06:25:39;;;;;;;50.77;20.73;;;;;;;-3.93;100.00;100688.38;4202545;28;20233;-68
2023/12/04 06:28:06;;;;;;;59.60;21.53;;;;;;;-3.95;100.00;100678.75;4185295;28;20247;-68
2023/12/04 06:30:33;;;;;;;47.97;20.57;;;;;;;-4.04;100.00;100678.13;4190626;28;20367;-66
2023/12/04 06:33:00;;;;;;;48.20;19.90;;;;;;;-4.06;100.00;100687.03;4183504;28;20474;-66
2023/12/04 06:35:26;;;;;;;57.40;21.37;;;;;;;-4.06;100.00;100684.38;4190172;28;20244;-67
2023/12/04 06:37:54;;;;;;;48.80;20.10;;;;;;;-4.13;100.00;100691.63;4191273;28;20250;-65
2023/12/04 06:40:22;;;;;;;50.67;20.47;;;;;;;-4.08;100.00;100695.03;4176721;28;23674;-69
2023/12/04 06:42:49;;;;;;;47.90;19.47;;;;;;;-4.06;100.00;100682.59;4190356;28;21297;-69
2023/12/04 06:45:16;;;;;;;53.43;20.73;;;;;;;-4.07;100.00;100682.66;4179078;28;23087;-70
2023/12/04 06:47:45;;;;;;;53.90;21.37;;;;;;;-4.14;100.00;100687.25;4195325;28;20235;-69
2023/12/04 06:50:14;;;;;;;50.33;19.90;;;;;;;-4.01;100.00;100680.69;4190808;28;20226;-67
2023/12/04 06:52:40;;;;;;;52.40;21.20;;;;;;;-4.07;100.00;100686.16;4187356;28;21737;-68
2023/12/04 06:55:08;;;;;;;58.07;21.13;;;;;;;-4.03;100.00;100693.09;4191791;28;20237;-66
2023/12/04 06:57:35;;;;;;;57.87;21.43;;;;;;;-4.03;100.00;100687.81;4189845;28;20233;-67
2023/12/04 07:00:03;;;;;;;54.93;21.97;;;;;;;-4.02;100.00;100694.81;4189346;28;20229;-67
2023/12/04 07:02:48;;;;;;;55.77;20.77;;;;;;;-4.04;100.00;100699.28;4194498;28;20243;-68
2023/12/04 07:05:16;;;;;;;54.40;22.10;;;;;;;-4.08;100.00;100695.03;4189804;28;21845;-67
2023/12/04 07:07:43;;;;;;;58.80;21.93;;;;;;;-3.99;100.00;100683.28;4190899;28;21142;-66
2023/12/04 07:10:14;;;;;;;57.47;21.90;;;;;;;-3.94;100.00;100688.44;4198560;28;20880;-67
2023/12/04 07:12:42;;;;;;;55.37;21.97;;;;;;;-3.98;100.00;100687.66;4195540;28;22977;-68
2023/12/04 07:15:11;;;;;;;53.90;21.20;;;;;;;-3.90;100.00;100687.41;4211646;28;20937;-70
2023/12/04 07:17:38;;;;;;;55.43;22.27;;;;;;;-3.97;100.00;100692.03;4198964;28;20248;-68
2023/12/04 07:20:08;;;;;;;56.63;22.10;;;;;;;-3.91;100.00;100698.88;4195089;28;20248;-71
2023/12/04 07:22:35;;;;;;;59.63;21.90;;;;;;;-3.94;100.00;100702.50;4186651;28;20570;-66
2023/12/04 07:25:07;;;;;;;59.83;22.60;;;;;;;-3.91;100.00;100697.13;4189319;28;22786;-65
2023/12/04 07:27:34;;;;;;;61.73;23.80;;;;;;;-3.98;100.00;100708.81;4191143;28;22357;-67
2023/12/04 07:30:02;;;;;;;57.03;22.60;;;;;;;-3.86;100.00;100702.28;4181477;28;22105;-67
2023/12/04 07:32:30;;;;;;;62.00;22.63;;;;;;;-3.96;100.00;100703.47;4185791;28;21161;-67
2023/12/04 07:34:58;;;;;;;67.07;22.80;;;;;;;-3.98;100.00;100699.09;4198201;28;20277;-67
2023/12/04 07:37:26;;;;;;;64.53;23.50;;;;;;;-3.95;100.00;100708.69;4189626;28;20233;-68
2023/12/04 07:39:52;;;;;;;61.77;23.53;;;;;;;-3.96;100.00;100706.13;4182001;28;20237;-70
2023/12/04 07:42:19;;;;;;;64.90;23.93;;;;;;;-3.90;100.00;100703.28;4185237;28;20237;-66
2023/12/04 07:44:47;;;;;;;64.00;23.57;;;;;;;-3.90;100.00;100703.28;4187871;28;20237;-67
2023/12/04 07:47:14;;;;;;;62.67;24.13;;;;;;;-3.78;100.00;100713.47;4183144;28;20255;-66
2023/12/04 07:49:41;;;;;;;66.07;25.13;;;;;;;-3.77;100.00;100703.75;4176744;28;20234;-67
2023/12/04 07:52:11;;;;;;;73.70;24.97;;;;;;;-3.79;100.00;100709.09;4177398;28;20236;-68
2023/12/04 07:54:38;;;;;;;62.83;23.10;;;;;;;-3.70;100.00;100705.28;4183475;28;20238;-68
2023/12/04 07:57:04;;;;;;;61.13;23.80;;;;;;;-3.56;100.00;100707.50;4188230;28;20244;-49
2023/12/04 07:59:31;;;;;;;61.07;23.10;;;;;;;-3.46;100.00;100714.19;4189947;28;20237;-66
2023/12/04 08:01:58;;;;;;;68.80;24.13;;;;;;;-3.56;100.00;100708.34;4186822;28;20236;-66
2023/12/04 08:04:25;;;;;;;60.93;22.97;;;;;;;-3.58;100.00;100714.59;4182949;28;21721;-64
2023/12/04 08:06:52;;;;;;;59.93;21.87;;;;;;;-3.64;100.00;100715.66;4186971;28;20233;-62
2023/12/04 08:09:19;;;;;;;63.37;23.50;;;;;;;-3.62;100.00;100719.13;4191193;28;20233;-64
2023/12/04 08:11:45;;;;;;;60.40;24.13;;;;;;;-3.66;100.00;100726.31;4190725;28;21725;-63
2023/12/04 08:14:12;;;;;;;58.63;21.70;;;;;;;-3.62;100.00;100712.97;4185002;28;21136;-66
2023/12/04 08:16:39;;;;;;;60.30;23.37;;;;;;;-3.72;100.00;100723.88;4189746;28;23095;-65
2023/12/04 08:19:05;;;;;;;58.40;21.90;;;;;;;-3.67;100.00;100719.28;4164947;28;20233;-64
2023/12/04 08:21:32;;;;;;;61.40;23.07;;;;;;;-3.64;100.00;100720.09;4176778;28;23688;-66
2023/12/04 08:24:00;;;;;;;60.83;23.57;;;;;;;-3.62;100.00;100723.53;4186113;28;20300;-65
2023/12/04 08:26:26;;;;;;;62.77;22.70;;;;;;;-3.59;100.00;100728.75;4189272;28;21805;-66
2023/12/04 08:28:53;;;;;;;57.27;22.63;;;;;;;-3.48;100.00;100731.03;4187049;28;22409;-63
2023/12/04 08:31:20;;;;;;;68.63;23.63;;;;;;;-3.55;100.00;100728.59;4191120;28;20955;-63
2023/12/04 08:33:47;;;;;;;60.17;21.60;;;;;;;-3.48;99.54;100729.28;4188323;28;20233;-64
2023/12/04 08:36:14;;;;;;;56.20;21.93;;;;;;;-3.60;100.00;100732.31;4179160;28;20667;-63
2023/12/04 08:38:40;;;;;;;58.20;22.57;;;;;;;-3.69;100.00;100739.63;4185887;28;20237;-65
2023/12/04 08:41:07;;;;;;;60.93;22.50;;;;;;;-3.65;100.00;100737.75;4192375;28;20234;-63
2023/12/04 08:43:34;;;;;;;55.67;20.67;;;;;;;-3.51;100.00;100746.09;4187172;28;22794;-66
2023/12/04 08:46:01;;;;;;;60.70;21.60;;;;;;;-3.47;99.71;100743.38;4183838;28;20237;-65
2023/12/04 08:48:28;;;;;;;59.07;22.07;;;;;;;-3.63;99.32;100749.16;4181056;28;20888;-67
2023/12/04 08:50:54;;;;;;;63.27;21.23;;;;;;;-3.48;99.42;100746.91;4183581;28;20785;-64
2023/12/04 08:53:21;;;;;;;55.53;19.60;;;;;;;-3.47;99.37;100744.22;4183287;28;20241;-67
2023/12/04 08:55:48;;;;;;;61.37;21.93;;;;;;;-3.43;99.00;100745.88;4178584;28;20233;-66
2023/12/04 08:58:15;;;;;;;56.90;21.63;;;;;;;-3.51;99.47;100743.44;4183242;28;20369;-64
2023/12/04 09:00:42;;;;;;;51.97;20.57;;;;;;;-3.52;99.67;100760.28;4182561;28;20234;-66
2023/12/04 09:03:10;;;;;;;54.90;21.17;;;;;;;-3.48;99.04;100750.44;4188306;28;20797;-73
2023/12/04 09:05:50;;;;;;;59.07;22.30;;;;;;;-3.34;98.87;100752.63;4180085;28;20233;-72
2023/12/04 09:08:21;;;;;;;60.73;23.33;;;;;;;-3.51;98.29;100758.47;4179628;28;20252;-69
2023/12/04 09:11:05;;;;;;;55.00;21.17;;;;;;;-3.35;98.59;100751.78;4186386;28;20352;-66
2023/12/04 09:13:35;;;;;;;56.90;21.83;;;;;;;-3.45;98.78;100742.38;4187313;28;20237;-69
2023/12/04 09:16:02;;;;;;;56.67;20.70;;;;;;;-3.33;98.39;100745.56;4181225;28;20241;-69
2023/12/04 09:18:28;;;;;;;60.10;21.10;;;;;;;-3.39;98.89;100743.97;4172083;28;20529;-65
2023/12/04 09:20:55;;;;;;;53.87;20.50;;;;;;;-3.22;98.02;100749.59;4181810;28;20245;-67
2023/12/04 09:23:22;;;;;;;52.60;19.90;;;;;;;-3.24;97.83;100748.75;4183509;28;22242;-65
2023/12/04 09:25:51;;;;;;;56.27;21.70;;;;;;;-3.28;98.05;100752.41;4183413;28;20237;-64
2023/12/04 09:28:17;;;;;;;52.07;20.07;;;;;;;-3.33;97.65;100756.16;4180995;28;20639;-64
2023/12/04 09:30:44;;;;;;;52.07;20.17;;;;;;;-3.35;97.28;100750.88;4177710;28;21686;-66
2023/12/04 09:33:11;;;;;;;51.87;19.37;;;;;;;-3.41;97.26;100754.63;4186809;28;25071;-66
2023/12/04 09:35:38;;;;;;;46.93;19.30;;;;;;;-3.24;97.38;100751.41;4182136;28;20341;-64
2023/12/04 09:38:04;;;;;;;56.20;21.10;;;;;;;-3.39;97.29;100744.84;4184194;28;20407;-69
2023/12/04 09:40:31;;;;;;;52.20;19.03;;;;;;;-3.45;98.13;100745.03;4186979;28;20241;-68
2023/12/04 09:42:58;;;;;;;54.90;21.80;;;;;;;-3.46;98.04;100745.94;4178740;28;20235;-65
2023/12/04 09:45:25;;;;;;;57.73;21.17;;;;;;;-3.40;98.17;100744.88;4186795;28;20240;-68
2023/12/04 09:47:53;;;;;;;54.70;20.30;;;;;;;-3.50;98.73;100742.53;4181696;28;20231;-68
2023/12/04 09:50:22;;;;;;;51.77;20.17;;;;;;;-3.47;98.62;100744.22;4177720;28;20332;-68
2023/12/04 09:52:53;;;;;;;57.73;20.50;;;;;;;-3.60;98.38;100742.88;4181763;28;20242;-68
2023/12/04 09:55:20;;;;;;;53.97;22.00;;;;;;;-3.58;98.68;100749.00;4187821;28;20230;-66
2023/12/04 09:57:46;;;;;;;49.90;20.23;;;;;;;-3.56;98.62;100742.75;4179376;28;25642;-68
2023/12/04 10:00:14;;;;;;;54.00;20.60;;;;;;;-3.48;99.15;100737.22;4188949;28;21738;-67
2023/12/04 10:02:41;;;;;;;54.43;19.83;;;;;;;-3.45;99.08;100746.84;4183564;28;20453;-66
2023/12/04 10:05:09;;;;;;;53.83;20.57;;;;;;;-3.50;99.08;100745.19;4191300;28;20426;-67
2023/12/04 10:07:36;;;;;;;56.70;20.67;;;;;;;-3.35;98.69;100737.66;4191819;28;20233;-71
2023/12/04 10:10:05;;;;;;;61.77;21.97;;;;;;;-3.39;98.32;100739.53;4180090;28;20614;-69
2023/12/04 10:12:33;;;;;;;53.27;19.80;;;;;;;-3.35;97.64;100729.72;4182968;28;20237;-66
2023/12/04 10:15:07;;;;;;;62.63;20.73;;;;;;;-3.13;97.67;100736.91;4198291;28;20244;-67
2023/12/04 10:17:40;;;;;;;59.73;21.87;;;;;;;-3.21;97.51;100737.19;4185662;28;20581;-68
2023/12/04 10:20:17;;;;;;;60.27;21.27;;;;;;;-3.17;96.73;100738.81;4182170;28;20331;-67
2023/12/04 10:22:55;;;;;;;51.47;20.00;;;;;;;-3.17;96.94;100735.31;4185020;28;20305;-69
2023/12/04 10:25:24;;;;;;;57.87;19.30;;;;;;;-3.08;96.49;100733.22;4185548;28;20305;-66
2023/12/04 10:27:52;;;;;;;53.37;20.20;;;;;;;-3.00;95.70;100729.44;4188512;28;21808;-65
2023/12/04 10:30:30;;;;;;;49.93;18.97;;;;;;;-2.93;95.68;100731.81;4203374;28;21642;-69
2023/12/04 10:33:01;;;;;;;52.30;19.13;;;;;;;-2.76;95.32;100728.56;4184422;28;20236;-66
2023/12/04 10:35:30;;;;;;;53.40;18.40;;;;;;;-2.83;95.41;100727.06;4182120;28;20707;-65
2023/12/04 10:37:59;;;;;;;54.03;19.67;;;;;;;-2.92;94.83;100725.63;4189852;28;20359;-65
2023/12/04 10:40:27;;;;;;;54.53;20.20;;;;;;;-2.86;95.49;100721.84;4185356;28;20233;-66
2023/12/04 10:43:11;;;;;;;49.27;18.67;;;;;;;-2.78;95.20;100721.59;4185436;28;20245;-66
2023/12/04 10:45:40;;;;;;;49.80;19.23;;;;;;;-2.75;95.00;100727.66;4182296;28;20248;-68
2023/12/04 10:48:07;;;;;;;46.83;18.53;;;;;;;-2.77;95.18;100732.13;4199951;28;20237;-64
2023/12/04 10:50:39;;;;;;;55.00;20.33;;;;;;;-2.64;94.81;100731.72;4185836;28;20918;-67
2023/12/04 10:53:07;;;;;;;53.33;20.37;;;;;;;-2.52;94.47;100735.66;4207858;28;20241;-64
2023/12/04 10:55:34;;;;;;;59.70;21.73;;;;;;;-2.48;94.46;100734.66;4185148;28;20263;-65
2023/12/04 10:58:06;;;;;;;56.30;19.30;;;;;;;-2.41;94.14;100725.53;4199175;28;20411;-67
2023/12/04 11:00:34;;;;;;;51.87;20.13;;;;;;;-2.44;93.42;100730.94;4185083;28;21330;-67
2023/12/04 11:03:08;;;;;;;54.80;18.73;;;;;;;-2.34;93.73;100732.34;4196040;28;25953;-67
2023/12/04 11:05:40;;;;;;;51.67;19.80;;;;;;;-2.29;93.44;100724.22;4173930;28;20236;-70
2023/12/04 11:08:14;;;;;;;46.60;18.10;;;;;;;-2.46;93.12;100722.22;4197745;28;20236;-71
2023/12/04 11:10:58;;;;;;;53.40;18.13;;;;;;;-2.37;92.47;100728.94;4190043;28;20240;-73
2023/12/04 11:13:30;;;;;;;47.30;18.00;;;;;;;-2.39;92.70;100729.88;4192511;28;20241;-74
2023/12/04 11:16:02;;;;;;;47.17;18.13;;;;;;;-2.49;93.82;100728.47;4189323;28;20315;-75